createdAt,value
2022-12-08T06:35:07.861Z,100249.41
2022-12-08T06:40:10.411Z,100237.44
2022-12-08T06:45:17.357Z,100240.53
2022-12-08T06:50:19.509Z,100237.84
2022-12-08T06:55:50.729Z,100245.13
2022-12-08T07:00:43.725Z,100243.31
2022-12-08T07:05:45.815Z,100256.19
2022-12-08T07:10:47.789Z,100260.19
2022-12-08T07:15:49.842Z,100258.34
2022-12-08T07:20:52.064Z,100262.75
2022-12-08T07:25:54.104Z,100241.13
2022-12-08T07:30:56.163Z,100258.34
2022-12-08T07:36:01.384Z,100250.91
2022-12-08T07:41:03.413Z,100236.87
2022-12-08T07:46:05.734Z,100233.00
2022-12-08T07:51:08.435Z,100239.66
2022-12-08T07:56:11.874Z,100261.59
2022-12-08T08:01:20.277Z,100245.94
2022-12-08T08:06:22.856Z,100248.88
2022-12-08T08:11:24.843Z,100243.16
2022-12-08T08:16:27.151Z,100237.63
2022-12-08T08:21:45.058Z,100243.22
2022-12-08T08:26:48.069Z,100257.44
2022-12-08T08:31:50.229Z,100238.06
2022-12-08T08:36:52.416Z,100236.44
2022-12-08T08:41:54.482Z,100244.66
2022-12-08T08:46:56.567Z,100260.56
2022-12-08T08:51:58.615Z,100251.28
2022-12-08T08:57:00.950Z,100247.94
2022-12-08T09:02:03.188Z,100237.19
2022-12-08T09:07:05.265Z,100241.56
2022-12-08T09:12:08.079Z,100222.12
2022-12-08T09:17:10.131Z,100232.06
2022-12-08T09:22:14.631Z,100224.06
2022-12-08T09:27:21.791Z,100225.91
2022-12-08T09:32:23.800Z,100204.25
2022-12-08T09:37:26.272Z,100215.59
2022-12-08T09:42:47.656Z,100205.91
2022-12-08T09:47:58.775Z,100215.97
2022-12-08T09:53:19.688Z,100197.00
2022-12-08T09:58:29.279Z,100170.75
2022-12-08T10:03:31.535Z,100163.06
2022-12-08T10:08:56.867Z,100170.66
2022-12-08T10:14:42.528Z,100172.87
2022-12-08T10:19:46.975Z,100178.22
2022-12-08T10:24:57.912Z,100189.44
2022-12-08T10:29:59.968Z,100183.44
2022-12-08T10:35:13.475Z,100170.16
2022-12-08T10:40:18.108Z,100162.03
2022-12-08T10:45:30.493Z,100135.19
2022-12-08T10:50:47.141Z,100139.06
2022-12-08T10:55:51.006Z,100117.47
2022-12-08T11:00:57.689Z,100119.31
2022-12-08T11:06:09.040Z,100098.31
2022-12-08T11:11:13.559Z,100102.06
2022-12-08T11:16:17.688Z,100098.72
2022-12-08T11:21:19.874Z,100082.06
2022-12-08T11:26:33.819Z,100087.66
2022-12-08T11:31:43.727Z,100072.41
2022-12-08T11:36:47.279Z,100065.59
2022-12-08T11:41:53.575Z,100050.44
2022-12-08T11:47:05.312Z,100036.38
2022-12-08T11:52:32.051Z,100025.41
2022-12-08T11:57:34.120Z,99994.19
2022-12-08T12:02:42.709Z,99987.34
2022-12-08T12:07:44.875Z,100006.66
2022-12-08T12:13:14.760Z,100006.16
2022-12-08T12:18:46.554Z,100007.56
2022-12-08T12:23:59.525Z,100014.88
2022-12-08T12:29:16.310Z,100009.34
2022-12-08T12:34:25.710Z,100007.34
2022-12-08T12:39:30.799Z,100002.72
2022-12-08T12:57:14.530Z,100005.75
2022-12-08T13:02:20.133Z,99998.41
2022-12-08T13:07:34.902Z,99989.69
2022-12-08T13:12:37.033Z,100000.53
2022-12-08T13:17:45.873Z,99994.75
2022-12-08T13:22:54.047Z,99984.91
2022-12-08T13:27:56.090Z,99987.81
2022-12-08T13:33:18.244Z,99976.16
2022-12-08T13:38:22.397Z,99984.00
2022-12-08T13:43:48.330Z,99979.66
2022-12-08T13:59:52.085Z,99987.34
2022-12-08T14:10:25.910Z,99969.06
2022-12-08T14:15:32.575Z,99975.59
2022-12-08T14:20:58.316Z,99972.91
2022-12-08T14:25:59.666Z,99967.03
2022-12-08T14:31:03.755Z,99976.06
2022-12-08T14:36:06.027Z,99980.59
2022-12-08T14:41:11.622Z,99970.81
2022-12-08T14:46:22.349Z,99979.25
2022-12-08T14:51:31.579Z,99982.81
2022-12-08T14:56:38.434Z,99973.41
2022-12-08T15:01:41.980Z,99984.94
2022-12-08T15:06:49.786Z,99972.66
2022-12-08T15:12:01.680Z,99977.75
2022-12-08T15:17:24.289Z,99956.09
2022-12-08T15:22:29.178Z,99944.34
2022-12-08T15:27:34.976Z,99960.00
2022-12-08T15:32:43.908Z,99959.34
2022-12-08T15:37:46.738Z,99966.59
2022-12-08T15:42:49.451Z,99959.56
2022-12-08T15:47:51.471Z,99942.69
2022-12-08T15:52:53.490Z,99936.81
2022-12-08T16:09:06.260Z,99929.72
2022-12-08T16:15:01.991Z,99918.59
2022-12-08T16:19:35.780Z,99942.84
2022-12-08T16:24:37.814Z,99939.94
2022-12-08T16:29:39.885Z,99927.22
2022-12-08T16:34:42.518Z,99938.56
2022-12-08T16:39:46.209Z,99929.81
2022-12-08T16:44:48.358Z,99948.16
2022-12-08T16:49:50.651Z,99947.22
2022-12-08T16:59:54.919Z,99922.78
2022-12-08T17:04:56.957Z,99937.25
2022-12-08T17:09:59.174Z,99955.59
2022-12-08T17:15:07.516Z,99935.44
2022-12-08T17:20:14.848Z,99937.81
2022-12-08T17:25:17.005Z,99929.22
2022-12-08T17:30:19.698Z,99938.44
2022-12-08T17:35:21.845Z,99934.09
2022-12-08T17:40:28.077Z,99940.44
2022-12-08T17:45:30.434Z,99926.69
2022-12-08T17:50:32.588Z,99943.72
2022-12-08T17:55:35.724Z,99919.72
2022-12-08T18:00:37.816Z,99929.25
2022-12-08T18:05:39.894Z,99910.19
2022-12-08T18:10:42.047Z,99931.78
2022-12-08T18:15:44.085Z,99930.00
2022-12-08T18:20:46.755Z,99938.84
2022-12-08T18:25:48.898Z,99902.13
2022-12-08T18:30:51.163Z,99900.72
2022-12-08T18:35:53.451Z,99899.25
2022-12-08T18:40:55.552Z,99906.84
2022-12-08T18:46:02.895Z,99905.53
2022-12-08T18:51:10.898Z,99920.84
2022-12-08T18:56:27.964Z,99924.34
2022-12-08T19:01:31.314Z,99910.97
2022-12-08T19:06:33.498Z,99929.53
2022-12-08T19:11:35.583Z,99901.87
2022-12-08T19:16:38.408Z,99907.09
2022-12-08T19:21:46.108Z,99905.06
2022-12-08T19:26:48.768Z,99914.47
2022-12-08T19:31:50.903Z,99925.44
2022-12-08T19:36:53.151Z,99919.66
2022-12-08T19:42:13.562Z,99935.13
2022-12-08T19:47:15.825Z,99931.06
2022-12-08T19:52:18.608Z,99916.78
2022-12-08T19:57:20.700Z,99907.59
2022-12-08T20:02:22.905Z,99915.50
2022-12-08T20:07:25.010Z,99900.88
2022-12-08T20:12:27.031Z,99894.50
2022-12-08T20:17:29.476Z,99910.09
2022-12-08T20:22:31.624Z,99889.72
2022-12-08T20:27:33.684Z,99879.41
2022-12-08T20:32:35.767Z,99886.44
2022-12-08T20:37:37.835Z,99879.31
2022-12-08T20:42:40.076Z,99868.34
2022-12-08T20:47:42.110Z,99888.13
2022-12-08T20:52:44.257Z,99900.34
2022-12-08T20:57:46.351Z,99895.06
2022-12-08T21:02:56.084Z,99910.47
2022-12-08T21:07:58.938Z,99915.06
2022-12-08T21:13:02.106Z,99914.63
2022-12-08T21:18:04.730Z,99917.06
2022-12-08T21:23:06.889Z,99919.34
2022-12-08T21:28:09.642Z,99920.09
2022-12-08T21:33:11.794Z,99910.06
